Etusivu
METAR-TAF:

METAR-TAF

Lentoasemat :

Kirkkoniemi, Norja

Leveyspiiri: 69-44N, Pituuspiiri: 029-54E, korkeus merenpinnasta: 9 m

Tämänhetkinen sää

Tämä raportti tehtiin 24 minuuttia sitten, kello 18.20 UTC
Tuuli 12 kn lännestä/lounaasta
Lämpötila 10°C
Kosteus 82%
Ilmanpaine 1027 hPa
Näkyvyys 10 km tai enemmän
Hajanaisia pilviä 1800 ft:n korkeudessa
Hajonneita pilviä 5900 ft:n korkeudessa

METAR: ENKR 221820Z 24012KT 9999 SCT018 BKN059 10/07 Q1027 RMK WIND 731FT 24024KT

Aika: 20:44 (18:44 UTC)

Sääennuste

Tämä raportti tehtiin 1 tunti ja 44 minuuttia sitten, kello 17.00 UTC
Ennuste voimassa 22. päivästä klo 18 UTC - 23. päivään klo 03 UTC
Tuuli 12 kn lounaasta
Näkyvyys 10 km tai enemmän
Muutamia pilviä 1000 ft:n korkeudessa
Hajonneita pilviä 3000 ft:n korkeudessa
Todennäköisyys 40%
22. päivästä klo 18 UTC - 22. päivään klo 21 UTC
Hajonneita pilviä 1200 ft:n korkeudessa

TAF: ENKR 221700Z 2218/2303 22012KT 9999 FEW010 BKN030 PROB40 2218/2221 BKN012

Säähavainnot ja -ennusteet yli 4000 lentoasemalta (METAR- ja TAF-raportit).

Käytössä olevat sääasemat on merkitty karttaan keltaisilla ja punaisilla pisteillä.

Aseta hiiri pisteen päälle nähdäksesi sääaseman nimen.

Klikkaa sitten nähdäksesi säähavainnot ja -ennusteet.

Kartan vaihtaminen: klikkaa mustalla rastilla varustettuja vihreitä pisteitä, niin voit zoomata sisään; viivalla varustettua vihreää pistettä, niin voit zoomata ulos tai vihreitä nuolia, niin pääset viereisille kartoille.


METAR-TAF: